createdAt,value
2018-09-08T00:00:38.671Z,17.04
2018-09-08T00:01:38.680Z,17.01
2018-09-08T00:02:38.684Z,16.97
2018-09-08T00:03:38.696Z,17.03
2018-09-08T00:04:38.709Z,16.97
2018-09-08T00:05:38.732Z,16.83
2018-09-08T00:06:38.706Z,16.85
2018-09-08T00:07:38.712Z,16.88
2018-09-08T00:08:38.791Z,16.91
2018-09-08T00:09:38.718Z,16.70
2018-09-08T00:10:38.779Z,16.70
2018-09-08T00:11:38.745Z,16.68
2018-09-08T00:12:38.723Z,16.75
2018-09-08T00:13:38.728Z,16.76
2018-09-08T00:14:38.737Z,16.75
2018-09-08T00:15:38.750Z,16.63
2018-09-08T00:16:38.746Z,16.53
2018-09-08T00:17:38.753Z,16.52
2018-09-08T00:18:38.751Z,16.57
2018-09-08T00:19:38.755Z,16.60
2018-09-08T00:20:38.766Z,16.49
2018-09-08T00:21:38.799Z,16.63
2018-09-08T00:22:38.773Z,16.66
2018-09-08T00:23:38.779Z,16.83
2018-09-08T00:24:38.841Z,16.79
2018-09-08T00:25:38.801Z,16.97
2018-09-08T00:26:38.806Z,16.83
2018-09-08T00:27:38.803Z,16.58
2018-09-08T00:28:38.795Z,16.76
2018-09-08T00:29:38.802Z,16.46
2018-09-08T00:30:38.805Z,16.53
2018-09-08T00:31:38.810Z,16.82
2018-09-08T00:32:38.823Z,16.91
2018-09-08T00:33:38.825Z,16.76
2018-09-08T00:34:38.822Z,16.49
2018-09-08T00:35:38.834Z,16.46
2018-09-08T00:36:38.831Z,16.58
2018-09-08T00:37:38.846Z,16.58
2018-09-08T00:38:38.845Z,16.52
2018-09-08T00:39:38.895Z,16.57
2018-09-08T00:40:38.862Z,16.64
2018-09-08T00:41:38.870Z,16.73
2018-09-08T00:42:38.865Z,16.53
2018-09-08T00:43:38.915Z,16.58
2018-09-08T00:44:38.895Z,16.70
2018-09-08T00:45:38.941Z,16.70
2018-09-08T00:46:38.882Z,16.71
2018-09-08T00:47:38.874Z,16.67
2018-09-08T00:48:38.882Z,16.79
2018-09-08T00:49:38.888Z,16.85
2018-09-08T00:50:38.897Z,16.71
2018-09-08T00:51:38.891Z,16.76
2018-09-08T00:52:38.964Z,16.67
2018-09-08T00:53:38.912Z,16.76
2018-09-08T00:54:38.904Z,16.70
2018-09-08T00:55:38.913Z,16.79
2018-09-08T00:56:38.920Z,16.60
2018-09-08T00:57:38.928Z,16.52
2018-09-08T00:58:38.945Z,16.78
2018-09-08T00:59:38.923Z,16.57
2018-09-08T01:00:38.932Z,16.53
2018-09-08T01:01:38.935Z,16.34
2018-09-08T01:02:38.943Z,16.50
2018-09-08T01:03:38.986Z,16.53
2018-09-08T01:04:38.997Z,16.53
2018-09-08T01:05:38.954Z,16.41
2018-09-08T01:06:38.964Z,16.38
2018-09-08T01:07:38.960Z,16.41
2018-09-08T01:08:38.959Z,16.43
2018-09-08T01:09:38.977Z,16.43
2018-09-08T01:10:38.973Z,16.33
2018-09-08T01:11:38.980Z,16.25
2018-09-08T01:12:39.017Z,16.45
2018-09-08T01:13:38.983Z,16.58
2018-09-08T01:14:38.989Z,16.53
2018-09-08T01:15:38.993Z,16.45
2018-09-08T01:16:39.031Z,16.33
2018-09-08T01:17:39.026Z,16.56
2018-09-08T01:18:39.003Z,16.28
2018-09-08T01:19:39.006Z,16.35
2018-09-08T01:20:39.020Z,16.41
2018-09-08T01:21:39.079Z,16.42
2018-09-08T01:22:39.018Z,16.23
2018-09-08T01:23:39.067Z,16.27
2018-09-08T01:24:39.027Z,16.45
2018-09-08T01:25:39.053Z,16.15
2018-09-08T01:26:39.041Z,16.28
2018-09-08T01:27:39.045Z,16.39
2018-09-08T01:28:39.048Z,16.50
2018-09-08T01:29:39.086Z,16.30
2018-09-08T01:30:39.061Z,16.35
2018-09-08T01:31:39.055Z,16.49
2018-09-08T01:32:39.073Z,16.35
2018-09-08T01:33:39.063Z,16.25
2018-09-08T01:34:39.070Z,16.27
2018-09-08T01:35:39.069Z,16.33
2018-09-08T01:36:39.081Z,16.24
2018-09-08T01:37:39.089Z,16.02
2018-09-08T01:38:39.091Z,16.01
2018-09-08T01:39:39.087Z,16.14
2018-09-08T01:40:39.095Z,15.96
2018-09-08T01:41:39.094Z,15.90
2018-09-08T01:42:39.130Z,15.97
2018-09-08T01:43:39.112Z,16.02
2018-09-08T01:44:39.109Z,15.90
2018-09-08T01:45:39.142Z,15.93
2018-09-08T01:46:39.123Z,15.83
2018-09-08T01:47:39.127Z,15.89
2018-09-08T01:48:39.142Z,15.90
2018-09-08T01:49:39.143Z,15.94
2018-09-08T01:50:39.129Z,16.05
2018-09-08T01:51:39.136Z,15.93
2018-09-08T01:52:39.143Z,16.01
2018-09-08T01:53:39.143Z,15.94
2018-09-08T01:54:39.183Z,16.05
2018-09-08T01:55:39.154Z,15.94
2018-09-08T01:56:39.169Z,15.87
2018-09-08T01:57:39.168Z,15.96
2018-09-08T01:58:39.167Z,15.89
2018-09-08T01:59:39.236Z,15.87
2018-09-08T02:00:39.198Z,16.04
2018-09-08T02:01:39.209Z,15.89
2018-09-08T02:02:39.179Z,15.82
2018-09-08T02:03:39.187Z,15.76
2018-09-08T02:04:39.186Z,15.78
2018-09-08T02:05:39.263Z,15.97
2018-09-08T02:06:39.208Z,15.90
2018-09-08T02:07:39.202Z,15.93
2018-09-08T02:08:39.210Z,15.89
2018-09-08T02:09:39.204Z,15.94
2018-09-08T02:10:39.209Z,15.86
2018-09-08T02:11:39.212Z,15.82
2018-09-08T02:12:39.221Z,15.89
2018-09-08T02:13:39.239Z,15.87
2018-09-08T02:14:39.236Z,15.83
2018-09-08T02:15:39.252Z,15.97
2018-09-08T02:16:39.240Z,15.93
2018-09-08T02:17:39.241Z,15.92
2018-09-08T02:18:39.250Z,15.93
2018-09-08T02:19:39.242Z,16.02
2018-09-08T02:20:39.259Z,15.93
2018-09-08T02:21:39.259Z,15.83
2018-09-08T02:22:39.256Z,15.89
2018-09-08T02:23:39.259Z,15.72
2018-09-08T02:24:39.270Z,15.87
2018-09-08T02:25:39.269Z,15.96
2018-09-08T02:26:39.270Z,15.96
2018-09-08T02:27:39.276Z,15.87
2018-09-08T02:28:39.290Z,15.78
2018-09-08T02:29:39.319Z,15.93
2018-09-08T02:30:39.339Z,15.97
2018-09-08T02:31:39.314Z,16.04
2018-09-08T02:32:39.290Z,16.01
2018-09-08T02:33:39.293Z,16.11
2018-09-08T02:34:39.321Z,16.20
2018-09-08T02:35:39.304Z,16.07
2018-09-08T02:36:39.317Z,15.97
2018-09-08T02:37:39.308Z,15.84
2018-09-08T02:38:39.310Z,15.92
2018-09-08T02:39:39.323Z,15.90
2018-09-08T02:40:39.318Z,16.09
2018-09-08T02:41:39.335Z,16.05
2018-09-08T02:42:39.332Z,16.07
2018-09-08T02:43:39.333Z,16.08
2018-09-08T02:44:39.337Z,16.09
2018-09-08T02:45:39.351Z,16.15
2018-09-08T02:46:39.339Z,16.02
2018-09-08T02:47:39.343Z,15.90
2018-09-08T02:48:39.373Z,15.86
2018-09-08T02:49:39.357Z,15.92
2018-09-08T02:50:39.390Z,15.82
2018-09-08T02:51:39.363Z,15.78
2018-09-08T02:52:39.363Z,15.83
2018-09-08T02:53:39.372Z,15.80
2018-09-08T02:54:39.414Z,15.86
2018-09-08T02:55:39.449Z,15.89
2018-09-08T02:56:39.381Z,15.90
2018-09-08T02:57:39.390Z,15.90
2018-09-08T02:58:39.383Z,15.96
2018-09-08T02:59:39.433Z,15.97
2018-09-08T03:00:39.400Z,15.97
2018-09-08T03:01:39.395Z,15.94
2018-09-08T03:02:39.404Z,15.96
2018-09-08T03:03:39.404Z,15.94
2018-09-08T03:04:39.406Z,15.90
2018-09-08T03:05:39.409Z,16.05
2018-09-08T03:06:39.414Z,16.09
2018-09-08T03:07:39.425Z,16.04
2018-09-08T03:08:39.436Z,15.93
2018-09-08T03:09:39.432Z,15.84
2018-09-08T03:10:39.504Z,15.94
2018-09-08T03:11:39.435Z,15.94
2018-09-08T03:12:39.438Z,15.94
2018-09-08T03:13:39.446Z,15.92
2018-09-08T03:14:39.453Z,15.83
2018-09-08T03:15:39.482Z,15.94
2018-09-08T03:16:39.453Z,15.78
2018-09-08T03:17:39.462Z,15.87
2018-09-08T03:18:39.462Z,15.80
2018-09-08T03:19:39.501Z,15.87
2018-09-08T03:20:39.465Z,15.94
2018-09-08T03:21:39.468Z,15.86
2018-09-08T03:22:39.572Z,15.86
2018-09-08T03:23:39.481Z,15.84
2018-09-08T03:24:39.502Z,15.72
2018-09-08T03:25:39.496Z,15.71
2018-09-08T03:26:39.494Z,15.60
2018-09-08T03:27:39.528Z,15.57
2018-09-08T03:28:39.495Z,15.59
2018-09-08T03:29:39.499Z,15.56
2018-09-08T03:30:39.503Z,15.47
2018-09-08T03:31:39.516Z,15.54
2018-09-08T03:32:39.535Z,15.78
2018-09-08T03:33:39.509Z,15.56
2018-09-08T03:34:39.512Z,15.51
2018-09-08T03:35:39.522Z,15.60
2018-09-08T03:36:39.534Z,15.72
2018-09-08T03:37:39.533Z,15.59
2018-09-08T03:38:39.545Z,15.75
2018-09-08T03:39:39.653Z,15.72
2018-09-08T03:40:39.540Z,15.62
2018-09-08T03:41:39.541Z,15.67
2018-09-08T03:42:39.560Z,15.69
2018-09-08T03:43:39.546Z,15.65
2018-09-08T03:44:39.552Z,15.75
2018-09-08T03:45:39.560Z,15.62
2018-09-08T03:46:39.557Z,15.46
2018-09-08T03:47:39.561Z,15.49
2018-09-08T03:48:39.562Z,15.60
2018-09-08T03:49:39.572Z,15.49
2018-09-08T03:50:39.601Z,15.43
2018-09-08T03:51:39.590Z,15.38
2018-09-08T03:52:39.578Z,15.46
2018-09-08T03:53:39.601Z,15.28
2018-09-08T03:54:39.588Z,15.46
2018-09-08T03:55:39.619Z,15.29
2018-09-08T03:56:39.589Z,15.29
2018-09-08T03:57:39.594Z,15.38
2018-09-08T03:58:39.600Z,15.29
2018-09-08T03:59:39.601Z,15.32
2018-09-08T04:00:39.618Z,15.31
2018-09-08T04:01:39.608Z,15.29
2018-09-08T04:02:39.613Z,15.14
2018-09-08T04:03:39.615Z,15.38
2018-09-08T04:04:39.621Z,15.35
2018-09-08T04:05:39.687Z,15.46
2018-09-08T04:06:39.629Z,15.49
2018-09-08T04:07:39.661Z,15.53
2018-09-08T04:08:39.632Z,15.28
2018-09-08T04:09:39.637Z,15.23
2018-09-08T04:10:39.658Z,15.27
2018-09-08T04:11:39.645Z,15.47
2018-09-08T04:12:39.644Z,15.28
2018-09-08T04:13:39.684Z,15.28
2018-09-08T04:14:39.656Z,15.02
2018-09-08T04:15:39.674Z,14.99
2018-09-08T04:16:39.666Z,15.13
2018-09-08T04:17:39.678Z,15.27
2018-09-08T04:18:39.677Z,15.11
2018-09-08T04:19:39.674Z,15.13
2018-09-08T04:20:39.677Z,15.09
2018-09-08T04:21:39.683Z,15.19
2018-09-08T04:22:39.679Z,15.32
2018-09-08T04:23:39.714Z,15.29
2018-09-08T04:24:39.712Z,15.01
2018-09-08T04:25:39.691Z,15.03
2018-09-08T04:26:39.700Z,15.03
2018-09-08T04:27:39.694Z,15.09
2018-09-08T04:28:39.700Z,15.29
2018-09-08T04:29:39.775Z,15.44
2018-09-08T04:30:39.709Z,15.43
2018-09-08T04:31:39.735Z,15.29
2018-09-08T04:32:39.722Z,15.47
2018-09-08T04:33:39.730Z,15.14
2018-09-08T04:34:39.765Z,15.07
2018-09-08T04:35:39.723Z,15.11
2018-09-08T04:36:39.727Z,15.29
2018-09-08T04:37:39.738Z,15.36
2018-09-08T04:38:39.733Z,15.23
2018-09-08T04:39:39.738Z,15.39
2018-09-08T04:40:39.749Z,15.51
2018-09-08T04:41:39.790Z,15.27
2018-09-08T04:42:39.749Z,15.28
2018-09-08T04:43:39.757Z,15.27
2018-09-08T04:44:39.854Z,15.28
2018-09-08T04:45:39.769Z,15.31
2018-09-08T04:46:39.762Z,15.07
2018-09-08T04:47:39.760Z,15.16
2018-09-08T04:48:39.761Z,15.10
2018-09-08T04:49:39.771Z,15.28
2018-09-08T04:50:39.777Z,15.25
2018-09-08T04:51:39.784Z,15.16
2018-09-08T04:52:39.783Z,15.16
2018-09-08T04:53:39.784Z,15.17
2018-09-08T04:54:39.788Z,15.27
2018-09-08T04:55:39.800Z,15.20
2018-09-08T04:56:39.826Z,15.19
2018-09-08T04:57:39.835Z,15.31
2018-09-08T04:58:39.798Z,15.16
2018-09-08T04:59:39.795Z,15.03
2018-09-08T05:00:39.858Z,15.25
2018-09-08T05:01:39.811Z,15.19
2018-09-08T05:02:39.824Z,15.34
2018-09-08T05:03:39.819Z,15.14
2018-09-08T05:04:39.813Z,15.17
2018-09-08T05:05:39.816Z,14.98
2018-09-08T05:06:39.830Z,15.03
2018-09-08T05:07:39.841Z,15.14
2018-09-08T05:08:39.836Z,15.19
2018-09-08T05:09:39.848Z,15.11
2018-09-08T05:10:39.838Z,15.09
2018-09-08T05:11:39.841Z,15.21
2018-09-08T05:12:39.852Z,15.11
2018-09-08T05:13:39.873Z,15.13
2018-09-08T05:14:39.849Z,15.16
2018-09-08T05:15:39.852Z,14.91
2018-09-08T05:16:39.848Z,15.02
2018-09-08T05:17:39.866Z,15.01
2018-09-08T05:18:39.911Z,15.02
2018-09-08T05:19:39.871Z,14.95
2018-09-08T05:20:39.932Z,15.27
2018-09-08T05:21:39.910Z,15.29
2018-09-08T05:22:39.876Z,15.29
2018-09-08T05:23:39.882Z,15.31
2018-09-08T05:24:39.882Z,15.13
2018-09-08T05:25:39.878Z,15.34
2018-09-08T05:26:39.886Z,15.43
2018-09-08T05:27:39.883Z,15.23
2018-09-08T05:28:39.970Z,14.99
2018-09-08T05:29:39.899Z,15.29
2018-09-08T05:30:39.947Z,15.23
2018-09-08T05:31:39.908Z,15.02
2018-09-08T05:32:39.958Z,14.95
2018-09-08T05:33:39.910Z,15.17
2018-09-08T05:34:39.911Z,15.31
2018-09-08T05:35:39.928Z,15.01
2018-09-08T05:36:39.911Z,15.10
2018-09-08T05:37:39.928Z,15.20
2018-09-08T05:38:39.931Z,15.01
2018-09-08T05:39:39.932Z,15.13
2018-09-08T05:40:39.929Z,15.28
2018-09-08T05:41:39.933Z,15.14
2018-09-08T05:42:39.932Z,15.01
2018-09-08T05:43:39.969Z,15.19
2018-09-08T05:44:39.978Z,15.29
2018-09-08T05:45:39.949Z,15.31
2018-09-08T05:46:39.951Z,15.49
2018-09-08T05:47:39.987Z,15.56
2018-09-08T05:48:39.991Z,15.50
2018-09-08T05:49:39.972Z,15.29
2018-09-08T05:50:39.964Z,15.11
2018-09-08T05:51:39.970Z,15.14
2018-09-08T05:52:39.967Z,15.16
2018-09-08T05:53:39.969Z,15.20
2018-09-08T05:54:39.972Z,15.09
2018-09-08T05:55:40.024Z,15.25
2018-09-08T05:56:39.983Z,15.21
2018-09-08T05:57:39.982Z,15.20
2018-09-08T05:58:39.988Z,15.21
2018-09-08T05:59:39.995Z,15.31
2018-09-08T06:00:39.988Z,15.46
2018-09-08T06:01:39.998Z,15.44
2018-09-08T06:02:40.003Z,15.44
2018-09-08T06:03:39.995Z,15.50
2018-09-08T06:04:40.000Z,15.46
2018-09-08T06:05:40.009Z,15.44
2018-09-08T06:06:40.036Z,15.57
2018-09-08T06:07:40.029Z,15.46
2018-09-08T06:08:40.058Z,15.69
2018-09-08T06:09:40.022Z,15.71
2018-09-08T06:10:40.075Z,15.54
2018-09-08T06:11:40.027Z,15.65
2018-09-08T06:12:40.023Z,15.68
2018-09-08T06:13:40.027Z,15.83
2018-09-08T06:14:40.037Z,15.87
2018-09-08T06:15:40.033Z,15.78
2018-09-08T06:16:40.038Z,15.84
2018-09-08T06:17:40.046Z,15.94
2018-09-08T06:18:40.043Z,16.00
2018-09-08T06:19:40.126Z,15.94
2018-09-08T06:20:40.059Z,15.94
2018-09-08T06:21:40.076Z,15.93
2018-09-08T06:22:40.066Z,15.92
2018-09-08T06:23:40.101Z,16.07
2018-09-08T06:24:40.062Z,15.93
2018-09-08T06:25:40.129Z,16.14
2018-09-08T06:26:40.141Z,16.07
2018-09-08T06:27:40.079Z,16.17
2018-09-08T06:28:40.253Z,16.27
2018-09-08T06:29:40.094Z,16.38
2018-09-08T06:30:40.083Z,16.33
2018-09-08T06:31:40.150Z,16.25
2018-09-08T06:32:40.099Z,16.31
2018-09-08T06:33:40.134Z,16.38
2018-09-08T06:34:40.133Z,16.35
2018-09-08T06:35:40.145Z,16.42
2018-09-08T06:36:40.153Z,16.34
2018-09-08T06:37:40.115Z,16.42
2018-09-08T06:38:40.134Z,16.34
2018-09-08T06:39:40.115Z,16.25
2018-09-08T06:40:40.128Z,16.11
2018-09-08T06:41:40.134Z,15.96
2018-09-08T06:42:40.131Z,16.17
2018-09-08T06:43:40.135Z,16.33
2018-09-08T06:44:40.145Z,16.35
2018-09-08T06:45:40.176Z,16.60
2018-09-08T06:46:40.154Z,16.57
2018-09-08T06:47:40.154Z,16.53
2018-09-08T06:48:40.153Z,16.50
2018-09-08T06:49:40.158Z,16.46
2018-09-08T06:50:40.185Z,16.60
2018-09-08T06:51:40.158Z,16.78
2018-09-08T06:52:40.165Z,16.56
2018-09-08T06:53:40.169Z,16.71
2018-09-08T06:54:40.178Z,16.73
2018-09-08T06:55:40.175Z,16.78
2018-09-08T06:56:40.176Z,16.82
2018-09-08T06:57:40.178Z,16.94
2018-09-08T06:58:40.207Z,16.85
2018-09-08T06:59:40.188Z,16.82
2018-09-08T07:00:40.201Z,16.78
2018-09-08T07:01:40.201Z,16.79
2018-09-08T07:02:40.205Z,16.89
2018-09-08T07:03:40.210Z,16.89
2018-09-08T07:04:40.257Z,17.11
2018-09-08T07:05:40.208Z,17.16
2018-09-08T07:06:40.258Z,17.15
2018-09-08T07:07:40.219Z,17.21
2018-09-08T07:08:40.233Z,17.18
2018-09-08T07:09:40.234Z,17.21
2018-09-08T07:10:40.242Z,17.23
2018-09-08T07:11:40.236Z,17.22
2018-09-08T07:12:40.240Z,17.12
2018-09-08T07:13:40.249Z,17.14
2018-09-08T07:14:40.253Z,17.23
2018-09-08T07:15:40.281Z,17.22
2018-09-08T07:16:40.263Z,17.30
2018-09-08T07:17:40.272Z,17.33
2018-09-08T07:18:40.295Z,17.40
2018-09-08T07:19:40.330Z,17.44
2018-09-08T07:20:40.296Z,17.41
2018-09-08T07:21:40.280Z,17.44
2018-09-08T07:22:40.280Z,17.54
2018-09-08T07:23:40.286Z,17.52
2018-09-08T07:24:40.294Z,17.71
2018-09-08T07:25:40.298Z,17.74
2018-09-08T07:26:40.301Z,17.75
2018-09-08T07:27:40.299Z,17.77
2018-09-08T07:28:40.305Z,17.90
2018-09-08T07:29:40.374Z,17.96
2018-09-08T07:30:40.320Z,17.75
2018-09-08T07:31:40.323Z,17.87
2018-09-08T07:32:40.331Z,17.77
2018-09-08T07:33:40.334Z,17.75
2018-09-08T07:34:40.354Z,17.87
2018-09-08T07:35:40.342Z,17.92
2018-09-08T07:36:40.364Z,17.92
2018-09-08T07:37:40.435Z,18.02
2018-09-08T07:38:40.356Z,17.93
2018-09-08T07:39:40.422Z,18.07
2018-09-08T07:40:40.359Z,18.00
2018-09-08T07:41:40.363Z,18.10
2018-09-08T07:42:40.370Z,18.15
2018-09-08T07:43:40.395Z,18.17
2018-09-08T07:44:40.385Z,18.15
2018-09-08T07:45:40.398Z,18.18
2018-09-08T07:46:40.444Z,18.25
2018-09-08T07:47:40.392Z,18.14
2018-09-08T07:48:40.404Z,18.18
2018-09-08T07:49:40.405Z,18.15
2018-09-08T07:50:40.407Z,18.25
2018-09-08T07:51:40.433Z,18.33
2018-09-08T07:52:40.478Z,18.18
2018-09-08T07:53:40.568Z,18.23
2018-09-08T07:54:40.448Z,18.27
2018-09-08T07:55:40.439Z,18.29
2018-09-08T07:56:40.525Z,18.23
2018-09-08T07:57:40.456Z,18.44
2018-09-08T07:58:40.446Z,18.54
2018-09-08T07:59:40.511Z,18.52
2018-09-08T08:00:40.462Z,18.48
2018-09-08T08:01:40.488Z,18.57
2018-09-08T08:02:40.468Z,18.54
2018-09-08T08:03:40.470Z,18.52
2018-09-08T08:04:40.481Z,18.66
2018-09-08T08:05:40.479Z,18.58
2018-09-08T08:06:40.499Z,18.45
2018-09-08T08:07:40.509Z,18.62
2018-09-08T08:08:40.527Z,18.55
2018-09-08T08:09:40.501Z,18.51
2018-09-08T08:10:40.511Z,18.67
2018-09-08T08:11:40.520Z,18.70
2018-09-08T08:12:40.528Z,18.65
2018-09-08T08:13:40.582Z,18.60
2018-09-08T08:14:40.594Z,18.76
2018-09-08T08:15:40.548Z,18.82
2018-09-08T08:16:40.542Z,18.90
2018-09-08T08:17:40.550Z,18.92
2018-09-08T08:18:40.619Z,18.87
2018-09-08T08:19:40.611Z,18.95
2018-09-08T08:20:40.565Z,18.99
2018-09-08T08:21:40.582Z,18.78
2018-09-08T08:22:40.566Z,18.95
2018-09-08T08:23:40.574Z,19.11
2018-09-08T08:24:40.649Z,19.11
2018-09-08T08:25:40.584Z,19.06
2018-09-08T08:26:40.589Z,19.06
2018-09-08T08:27:40.597Z,19.07
2018-09-08T08:28:40.605Z,19.08
2018-09-08T08:29:40.608Z,19.10
2018-09-08T08:30:40.609Z,19.18
2018-09-08T08:31:40.627Z,19.21
2018-09-08T08:32:40.623Z,19.21
2018-09-08T08:33:40.632Z,19.33
2018-09-08T08:34:40.635Z,19.36
2018-09-08T08:35:40.740Z,19.32
2018-09-08T08:36:40.641Z,19.28
2018-09-08T08:37:40.651Z,19.39
2018-09-08T08:38:40.654Z,19.19
2018-09-08T08:39:40.723Z,19.32
2018-09-08T08:40:40.712Z,19.32
2018-09-08T08:41:40.677Z,19.41
2018-09-08T08:42:40.763Z,19.23
2018-09-08T08:43:40.702Z,19.41
2018-09-08T08:44:40.702Z,19.56
2018-09-08T08:45:40.710Z,19.50
2018-09-08T08:46:40.707Z,19.47
2018-09-08T08:47:40.711Z,19.55
2018-09-08T08:48:40.726Z,19.46
2018-09-08T08:49:40.781Z,19.39
2018-09-08T08:50:40.750Z,19.22
2018-09-08T08:51:40.731Z,19.43
2018-09-08T08:52:40.734Z,19.58
2018-09-08T08:53:40.742Z,19.59
2018-09-08T08:54:40.750Z,19.48
2018-09-08T08:55:40.753Z,19.55
2018-09-08T08:56:40.843Z,19.43
2018-09-08T08:57:40.771Z,19.47
2018-09-08T08:58:40.774Z,19.62
2018-09-08T08:59:40.783Z,19.76
2018-09-08T09:00:40.815Z,19.84
2018-09-08T09:01:40.794Z,19.84
2018-09-08T09:02:40.793Z,19.69
2018-09-08T09:03:40.807Z,19.74
2018-09-08T09:04:40.808Z,19.99
2018-09-08T09:05:40.830Z,19.78
2018-09-08T09:06:40.818Z,19.88
2018-09-08T09:07:40.822Z,19.86
2018-09-08T09:08:41.269Z,19.76
2018-09-08T09:09:40.842Z,19.77
2018-09-08T09:10:40.846Z,19.66
2018-09-08T09:11:40.854Z,19.59
2018-09-08T09:12:40.873Z,19.56
2018-09-08T09:13:40.865Z,19.66
2018-09-08T09:14:41.203Z,19.73
2018-09-08T09:15:40.872Z,19.83
2018-09-08T09:16:40.919Z,19.95
2018-09-08T09:17:40.918Z,19.99
2018-09-08T09:18:41.400Z,20.10
2018-09-08T09:19:40.947Z,20.11
2018-09-08T09:20:40.929Z,20.02
2018-09-08T09:21:40.906Z,20.11
2018-09-08T09:22:40.930Z,20.02
2018-09-08T09:23:40.993Z,20.13
2018-09-08T09:24:41.342Z,20.17
2018-09-08T09:25:40.960Z,20.28
2018-09-08T09:26:40.954Z,20.11
2018-09-08T09:27:40.968Z,20.08
2018-09-08T09:28:41.036Z,20.13
2018-09-08T09:29:41.006Z,20.11
2018-09-08T09:30:40.961Z,20.08
2018-09-08T09:31:41.039Z,20.29
2018-09-08T09:32:41.036Z,20.41
2018-09-08T09:33:40.997Z,20.33
2018-09-08T09:34:41.008Z,20.35
2018-09-08T09:35:41.021Z,20.35
2018-09-08T09:36:41.004Z,20.50
2018-09-08T09:37:41.014Z,20.42
2018-09-08T09:38:41.068Z,20.50
2018-09-08T09:39:41.022Z,20.61
2018-09-08T09:40:41.031Z,20.41
2018-09-08T09:41:41.050Z,20.39
2018-09-08T09:42:41.039Z,20.52
2018-09-08T09:43:41.135Z,20.54
2018-09-08T09:44:41.074Z,20.48
2018-09-08T09:45:47.565Z,20.21
2018-09-08T09:46:41.070Z,20.18
2018-09-08T09:47:41.081Z,20.38
2018-09-08T09:48:41.098Z,20.58
2018-09-08T09:49:41.091Z,20.59
2018-09-08T09:50:41.095Z,20.54
2018-09-08T09:51:41.109Z,20.57
2018-09-08T09:52:41.104Z,20.59
2018-09-08T09:53:41.111Z,20.72
2018-09-08T09:54:41.126Z,20.42
2018-09-08T09:55:41.202Z,20.58
2018-09-08T09:56:41.167Z,20.64
2018-09-08T09:57:41.139Z,20.69
2018-09-08T09:58:41.145Z,20.62
2018-09-08T09:59:41.154Z,20.79
2018-09-08T10:00:41.156Z,20.69
2018-09-08T10:01:41.171Z,20.55
2018-09-08T10:02:41.221Z,20.77
2018-09-08T10:03:41.191Z,20.79
2018-09-08T10:04:41.185Z,20.82
2018-09-08T10:05:41.193Z,20.69
2018-09-08T10:06:41.256Z,20.57
2018-09-08T10:07:41.236Z,20.55
2018-09-08T10:08:41.217Z,20.51
2018-09-08T10:09:41.227Z,20.73
2018-09-08T10:10:41.235Z,20.85
2018-09-08T10:11:41.249Z,20.69
2018-09-08T10:12:41.255Z,20.73
2018-09-08T10:13:41.249Z,20.64
2018-09-08T10:14:41.267Z,20.69
2018-09-08T10:15:41.264Z,20.94
2018-09-08T10:16:41.268Z,20.97
2018-09-08T10:17:41.276Z,20.79
2018-09-08T10:18:41.284Z,20.79
2018-09-08T10:19:41.347Z,20.97
2018-09-08T10:20:41.309Z,20.82
2018-09-08T10:21:41.317Z,20.73
2018-09-08T10:22:41.390Z,20.82
2018-09-08T10:23:41.325Z,20.95
2018-09-08T10:24:41.334Z,21.09
2018-09-08T10:25:41.361Z,21.03
2018-09-08T10:26:41.350Z,20.95
2018-09-08T10:27:41.370Z,20.97
2018-09-08T10:28:41.364Z,20.94
2018-09-08T10:29:41.587Z,20.97
2018-09-08T10:30:41.375Z,20.97
2018-09-08T10:31:41.374Z,21.07
2018-09-08T10:32:41.385Z,21.10
2018-09-08T10:33:41.398Z,21.19
2018-09-08T10:34:41.504Z,20.91
2018-09-08T10:35:41.461Z,20.91
2018-09-08T10:36:41.418Z,20.76
2018-09-08T10:37:41.423Z,20.91
2018-09-08T11:38:24.404Z,22.18
2018-09-08T11:39:24.152Z,22.24
2018-09-08T11:40:24.184Z,22.21
2018-09-08T11:41:24.187Z,22.18
2018-09-08T11:42:24.155Z,22.37
2018-09-08T11:43:24.156Z,22.54
2018-09-08T11:44:24.161Z,22.65
2018-09-08T11:45:24.177Z,22.54
2018-09-08T11:46:24.182Z,22.58
2018-09-08T11:47:24.192Z,22.60
2018-09-08T11:48:24.222Z,22.45
2018-09-08T11:49:24.234Z,22.43
2018-09-08T11:50:24.213Z,22.51
2018-09-08T11:51:24.221Z,22.37
2018-09-08T11:52:24.225Z,22.43
2018-09-08T11:53:24.234Z,22.64
2018-09-08T11:54:24.241Z,22.77
2018-09-08T11:55:24.252Z,22.73
2018-09-08T11:56:24.264Z,22.83
2018-09-08T11:57:24.265Z,22.68
2018-09-08T11:58:24.274Z,22.77
2018-09-08T11:59:24.295Z,22.94
2018-09-08T12:00:24.289Z,22.79
2018-09-08T12:01:24.301Z,22.88
2018-09-08T12:02:24.307Z,22.79
2018-09-08T12:03:24.314Z,22.92
2018-09-08T12:04:24.328Z,22.95
2018-09-08T12:05:24.396Z,23.04
2018-09-08T12:06:24.423Z,22.90
2018-09-08T12:07:24.377Z,22.94
2018-09-08T12:08:24.382Z,22.90
2018-09-08T12:09:24.384Z,22.88
2018-09-08T12:10:24.392Z,22.95
2018-09-08T12:11:24.391Z,23.05
2018-09-08T12:12:24.444Z,23.10
2018-09-08T12:13:24.446Z,22.98
2018-09-08T12:14:24.464Z,23.01
2018-09-08T12:15:24.430Z,23.00
2018-09-08T12:16:24.427Z,23.05
2018-09-08T12:17:24.432Z,23.10
2018-09-08T12:18:24.487Z,23.17
2018-09-08T12:19:24.448Z,23.02
2018-09-08T12:20:24.459Z,22.91
2018-09-08T12:21:24.497Z,23.05
2018-09-08T12:22:24.523Z,23.10
2018-09-08T12:23:24.480Z,23.01
2018-09-08T12:24:24.545Z,23.00
2018-09-08T12:25:24.571Z,23.00
2018-09-08T12:26:24.505Z,22.98
2018-09-08T12:27:24.516Z,23.01
2018-09-08T12:28:24.537Z,23.05
2018-09-08T12:29:24.561Z,23.17
2018-09-08T12:30:24.574Z,23.16
2018-09-08T12:31:24.600Z,23.00
2018-09-08T12:32:24.593Z,23.16
2018-09-08T12:33:24.563Z,23.22
2018-09-08T12:34:24.575Z,23.10
2018-09-08T12:35:24.626Z,23.16
2018-09-08T12:36:24.600Z,23.27
2018-09-08T12:37:24.650Z,23.10
2018-09-08T12:38:24.612Z,23.02
2018-09-08T12:39:24.617Z,23.27
2018-09-08T12:40:24.627Z,23.38
2018-09-08T12:41:24.646Z,23.51
2018-09-08T12:42:24.642Z,23.39
2018-09-08T12:43:24.652Z,23.36
2018-09-08T12:44:24.707Z,23.28
2018-09-08T12:45:24.716Z,23.20
2018-09-08T12:46:24.684Z,23.27
2018-09-08T12:47:24.702Z,23.39
2018-09-08T12:48:24.709Z,23.43
2018-09-08T12:49:24.748Z,23.55
2018-09-08T12:50:24.728Z,23.48
2018-09-08T12:51:24.728Z,23.69
2018-09-08T12:52:24.763Z,23.63
2018-09-08T12:53:24.800Z,23.66
2018-09-08T12:54:24.815Z,23.78
2018-09-08T12:55:24.753Z,23.85
2018-09-08T12:56:24.785Z,23.69
2018-09-08T12:57:24.833Z,23.65
2018-09-08T12:58:24.780Z,23.66
2018-09-08T12:59:24.813Z,23.66
2018-09-08T13:00:24.799Z,23.75
2018-09-08T13:01:24.805Z,23.75
2018-09-08T13:02:24.817Z,23.70
2018-09-08T13:03:24.840Z,23.88
2018-09-08T13:04:24.839Z,23.87
2018-09-08T13:05:24.853Z,23.95
2018-09-08T13:06:24.859Z,23.84
2018-09-08T13:07:24.860Z,23.88
2018-09-08T13:08:24.875Z,23.97
2018-09-08T13:09:24.876Z,23.97
2018-09-08T13:10:24.889Z,24.00
2018-09-08T13:11:24.904Z,23.98
2018-09-08T13:12:24.905Z,24.05
2018-09-08T13:13:24.913Z,23.83
2018-09-08T13:14:24.927Z,24.00
2018-09-08T13:15:24.929Z,23.87
2018-09-08T13:16:24.941Z,23.84
2018-09-08T13:17:24.945Z,23.94
2018-09-08T13:18:24.955Z,23.95
2018-09-08T13:19:24.964Z,24.00
2018-09-08T13:20:24.976Z,23.93
2018-09-08T13:21:24.983Z,24.06
2018-09-08T13:22:25.003Z,24.20
2018-09-08T13:23:25.014Z,23.97
2018-09-08T13:24:25.034Z,24.02
2018-09-08T13:25:25.048Z,24.02
2018-09-08T13:26:25.044Z,24.00
2018-09-08T13:27:25.046Z,24.16
2018-09-08T13:28:25.054Z,24.24
2018-09-08T13:29:25.060Z,24.27
2018-09-08T13:30:25.066Z,24.22
2018-09-08T13:31:25.083Z,24.12
2018-09-08T13:32:25.086Z,24.08
2018-09-08T13:33:25.101Z,24.31
2018-09-08T13:34:25.105Z,24.05
2018-09-08T13:35:25.113Z,24.13
2018-09-08T13:36:25.133Z,24.30
2018-09-08T13:37:25.133Z,24.47
2018-09-08T13:38:25.147Z,24.65
2018-09-08T13:39:25.179Z,24.61
2018-09-08T13:40:25.173Z,24.61
2018-09-08T13:41:25.176Z,24.71
2018-09-08T13:42:25.177Z,24.60
2018-09-08T13:43:25.195Z,24.42
2018-09-08T13:44:25.226Z,24.47
2018-09-08T13:45:25.211Z,24.46
2018-09-08T13:46:25.245Z,24.40
2018-09-08T13:47:25.266Z,24.47
2018-09-08T13:48:25.239Z,24.52
2018-09-08T13:49:25.260Z,24.50
2018-09-08T13:50:25.257Z,24.45
2018-09-08T13:51:25.267Z,24.58
2018-09-08T13:52:25.281Z,24.77